createdAt,value
2023-02-22T00:00:06.325Z,3.80
2023-02-22T00:03:35.020Z,4.30
2023-02-22T00:06:56.238Z,4.10
2023-02-22T00:10:27.060Z,3.70
2023-02-22T00:13:34.229Z,3.20
2023-02-22T00:17:02.647Z,2.90
2023-02-22T00:20:19.400Z,3.40
2023-02-22T00:23:47.528Z,3.60
2023-02-22T00:27:06.043Z,4.30
2023-02-22T00:30:24.399Z,3.60
2023-02-22T00:33:33.686Z,3.20
2023-02-22T00:36:48.434Z,3.30
2023-02-22T00:39:54.747Z,3.30
2023-02-22T00:43:06.376Z,3.50
2023-02-22T00:46:30.518Z,3.30
2023-02-22T00:49:42.671Z,3.20
2023-02-22T00:52:58.328Z,4.20
2023-02-22T00:56:03.927Z,3.10
2023-02-22T00:59:27.427Z,3.30
2023-02-22T01:02:51.965Z,3.00
2023-02-22T01:06:00.482Z,2.80
2023-02-22T01:09:23.497Z,3.10
2023-02-22T01:12:30.465Z,3.10
2023-02-22T01:15:45.777Z,3.30
2023-02-22T01:19:12.712Z,2.50
2023-02-22T01:22:35.214Z,3.00
2023-02-22T01:25:44.614Z,2.30
2023-02-22T01:29:04.392Z,3.90
2023-02-22T01:32:26.992Z,2.50
2023-02-22T01:35:50.199Z,3.00
2023-02-22T01:39:10.355Z,2.90
2023-02-22T01:42:33.426Z,3.00
2023-02-22T01:45:52.322Z,2.80
2023-02-22T01:49:21.489Z,3.30
2023-02-22T01:52:28.786Z,3.10
2023-02-22T01:55:35.927Z,3.10
2023-02-22T01:58:52.262Z,4.30
2023-02-22T02:01:56.916Z,4.60
2023-02-22T02:05:08.464Z,5.00
2023-02-22T02:08:52.622Z,3.70
2023-02-22T02:11:56.162Z,4.50
2023-02-22T02:15:25.972Z,3.70
2023-02-22T02:18:30.079Z,4.30
2023-02-22T02:21:42.190Z,4.50
2023-02-22T02:25:06.822Z,5.50
2023-02-22T02:28:34.638Z,8.70
2023-02-22T02:32:06.176Z,9.20
2023-02-22T02:35:24.728Z,8.30
2023-02-22T02:39:07.248Z,7.70
2023-02-22T02:42:15.690Z,4.70
2023-02-22T02:45:26.469Z,5.50
2023-02-22T02:48:32.784Z,5.90
2023-02-22T02:51:40.202Z,7.80
2023-02-22T02:54:45.867Z,17.90
2023-02-22T02:57:48.804Z,34.00
2023-02-22T03:00:55.785Z,17.50
2023-02-22T03:04:20.397Z,10.80
2023-02-22T03:07:26.133Z,7.80
2023-02-22T03:10:44.485Z,6.10
2023-02-22T03:16:58.547Z,4.00
2023-02-22T03:20:31.911Z,4.90
2023-02-22T03:23:48.227Z,5.40
2023-02-22T03:27:04.662Z,5.40
2023-02-22T03:30:12.443Z,6.50
2023-02-22T03:33:21.031Z,4.50
2023-02-22T03:36:35.828Z,5.80
2023-02-22T03:39:39.056Z,6.60
2023-02-22T03:42:48.939Z,6.70
2023-02-22T03:45:53.329Z,6.60
2023-02-22T03:49:03.811Z,6.40
2023-02-22T03:52:08.111Z,8.10
2023-02-22T03:55:12.658Z,6.50
2023-02-22T03:58:16.528Z,5.50
2023-02-22T04:01:20.181Z,6.70
2023-02-22T04:04:25.359Z,7.40
2023-02-22T04:07:28.352Z,7.20
2023-02-22T04:10:31.878Z,6.90
2023-02-22T04:13:34.901Z,5.70
2023-02-22T04:16:37.885Z,6.70
2023-02-22T04:19:41.040Z,5.60
2023-02-22T04:22:43.977Z,6.10
2023-02-22T04:25:46.988Z,6.00
2023-02-22T04:28:49.911Z,5.20
2023-02-22T04:31:53.160Z,4.90
2023-02-22T04:34:56.238Z,4.50
2023-02-22T04:37:59.301Z,5.30
2023-02-22T04:41:02.504Z,5.30
2023-02-22T04:44:05.674Z,5.10
2023-02-22T04:47:08.693Z,5.30
2023-02-22T04:50:12.763Z,3.70
2023-02-22T04:53:15.934Z,4.60
2023-02-22T04:56:58.442Z,4.80
2023-02-22T05:00:40.516Z,6.20
2023-02-22T05:04:08.687Z,4.40
2023-02-22T05:07:35.796Z,5.90
2023-02-22T05:10:43.370Z,5.10
2023-02-22T05:14:04.466Z,5.70
2023-02-22T05:17:07.549Z,4.80
2023-02-22T05:20:19.780Z,4.70
2023-02-22T05:23:22.912Z,5.40
2023-02-22T05:26:26.113Z,5.30
2023-02-22T05:29:29.205Z,5.90
2023-02-22T05:32:32.282Z,10.70
2023-02-22T05:35:37.237Z,11.60
2023-02-22T05:38:44.876Z,4.60
2023-02-22T05:41:48.186Z,5.30
2023-02-22T05:44:51.273Z,5.50
2023-02-22T05:47:58.199Z,5.40
2023-02-22T05:51:01.188Z,9.60
2023-02-22T05:54:04.480Z,6.40
2023-02-22T05:57:10.608Z,5.50
2023-02-22T06:00:23.285Z,7.30
2023-02-22T06:03:26.536Z,6.00
2023-02-22T06:06:29.693Z,6.90
2023-02-22T06:09:32.810Z,9.40
2023-02-22T06:12:35.945Z,9.00
2023-02-22T06:15:53.848Z,10.40
2023-02-22T06:18:56.875Z,7.30
2023-02-22T06:22:03.356Z,6.30
2023-02-22T06:25:07.123Z,7.20
2023-02-22T06:28:11.041Z,4.60
2023-02-22T06:31:14.255Z,7.40
2023-02-22T06:34:17.975Z,8.30
2023-02-22T06:37:21.127Z,8.90
2023-02-22T06:40:24.313Z,10.00
2023-02-22T06:43:27.325Z,8.80
2023-02-22T06:46:30.396Z,9.70
2023-02-22T06:49:33.436Z,9.20
2023-02-22T06:52:36.485Z,11.50
2023-02-22T06:55:39.488Z,11.10
2023-02-22T06:58:42.510Z,9.60
2023-02-22T07:01:45.502Z,9.90
2023-02-22T07:04:48.588Z,12.30
2023-02-22T07:07:53.598Z,10.10
2023-02-22T07:10:56.891Z,9.70
2023-02-22T07:13:59.913Z,8.60
2023-02-22T07:17:03.451Z,10.30
2023-02-22T07:20:06.943Z,10.40
2023-02-22T07:23:10.007Z,11.30
2023-02-22T07:26:14.313Z,11.90
2023-02-22T07:29:17.465Z,15.50
2023-02-22T07:32:20.546Z,12.80
2023-02-22T07:35:31.918Z,12.90
2023-02-22T07:38:35.131Z,8.80
2023-02-22T07:41:40.560Z,10.00
2023-02-22T07:44:49.607Z,10.50
2023-02-22T07:47:53.263Z,11.50
2023-02-22T07:50:57.320Z,12.90
2023-02-22T07:54:00.393Z,8.70
2023-02-22T07:57:03.780Z,9.00
2023-02-22T08:00:07.418Z,9.50
2023-02-22T08:03:15.292Z,8.80
2023-02-22T08:06:18.433Z,8.10
2023-02-22T08:09:21.463Z,11.10
2023-02-22T08:12:24.514Z,12.20
2023-02-22T08:15:28.998Z,10.30
2023-02-22T08:18:32.148Z,9.50
2023-02-22T08:21:35.108Z,8.90
2023-02-22T08:24:38.253Z,7.80
2023-02-22T08:27:42.010Z,8.50
2023-02-22T08:30:45.002Z,10.60
2023-02-22T08:33:49.587Z,10.30
2023-02-22T08:36:52.990Z,11.80
2023-02-22T08:39:56.303Z,11.10
2023-02-22T08:42:59.827Z,11.30
2023-02-22T08:46:02.865Z,8.80
2023-02-22T08:49:10.713Z,12.80
2023-02-22T08:52:13.711Z,11.50
2023-02-22T08:55:19.897Z,12.60
2023-02-22T08:58:40.408Z,10.00
2023-02-22T09:02:10.945Z,9.20
2023-02-22T09:05:26.309Z,11.90
2023-02-22T09:08:29.449Z,11.50
2023-02-22T09:11:32.436Z,9.00
2023-02-22T09:14:35.493Z,8.20
2023-02-22T09:17:38.625Z,9.50
2023-02-22T09:20:42.123Z,7.60
2023-02-22T09:23:50.132Z,7.90
2023-02-22T09:27:10.624Z,8.70
2023-02-22T09:30:34.884Z,6.00
2023-02-22T09:33:39.048Z,5.10
2023-02-22T09:36:46.752Z,6.70
2023-02-22T09:39:51.426Z,3.30
2023-02-22T09:43:23.185Z,4.90
2023-02-22T09:46:29.948Z,5.10
2023-02-22T09:49:51.885Z,4.70
2023-02-22T09:53:53.397Z,3.80
2023-02-22T09:57:02.604Z,4.20
2023-02-22T10:00:22.214Z,4.20
2023-02-22T10:03:30.005Z,5.30
2023-02-22T10:06:34.859Z,3.80
2023-02-22T10:09:45.021Z,3.60
2023-02-22T10:12:56.980Z,2.20
2023-02-22T10:19:12.235Z,3.20
2023-02-22T10:22:52.794Z,2.50
2023-02-22T10:26:04.722Z,3.10
2023-02-22T10:32:45.644Z,3.70
2023-02-22T10:35:49.110Z,3.80
2023-02-22T10:38:58.608Z,3.60
2023-02-22T10:42:09.939Z,3.60
2023-02-22T10:45:50.399Z,2.30
2023-02-22T10:49:03.779Z,2.90
2023-02-22T10:52:17.375Z,5.00
2023-02-22T10:55:20.471Z,4.00
2023-02-22T10:58:24.714Z,2.40
2023-02-22T11:01:37.742Z,3.80
2023-02-22T11:04:55.884Z,4.10
2023-02-22T11:08:15.983Z,3.90
2023-02-22T11:11:24.883Z,3.20
2023-02-22T11:14:30.040Z,4.10
2023-02-22T11:17:34.636Z,2.90
2023-02-22T11:20:39.888Z,4.00
2023-02-22T11:23:45.089Z,5.20
2023-02-22T11:26:59.790Z,4.40
2023-02-22T11:30:18.627Z,4.10
2023-02-22T11:33:25.906Z,4.10
2023-02-22T11:36:40.596Z,5.00
2023-02-22T11:39:45.570Z,4.30
2023-02-22T11:43:16.198Z,4.20
2023-02-22T11:46:23.366Z,4.70
2023-02-22T11:49:34.486Z,4.30
2023-02-22T11:52:46.299Z,5.20
2023-02-22T11:56:06.163Z,5.00
2023-02-22T11:59:12.256Z,3.70
2023-02-22T12:02:51.909Z,4.20
2023-02-22T12:06:08.359Z,4.20
2023-02-22T12:09:33.254Z,5.40
2023-02-22T12:12:47.419Z,3.50
2023-02-22T12:16:16.684Z,3.40
2023-02-22T12:19:41.927Z,3.10
2023-02-22T12:22:55.558Z,2.80
2023-02-22T12:26:15.025Z,4.40
2023-02-22T12:29:39.661Z,3.00
2023-02-22T12:32:48.380Z,3.40
2023-02-22T12:35:58.600Z,3.00
2023-02-22T12:39:11.081Z,3.00
2023-02-22T12:42:42.827Z,3.10
2023-02-22T12:46:00.579Z,3.10
2023-02-22T12:49:24.950Z,2.20
2023-02-22T12:52:57.960Z,2.30
2023-02-22T12:56:19.419Z,2.20
2023-02-22T12:59:32.026Z,2.20
2023-02-22T13:03:17.915Z,3.00
2023-02-22T13:06:48.713Z,3.70
2023-02-22T13:09:59.667Z,2.40
2023-02-22T13:13:17.323Z,3.90
2023-02-22T13:16:32.861Z,3.40
2023-02-22T13:19:42.046Z,2.90
2023-02-22T13:23:04.493Z,3.60
2023-02-22T13:26:19.796Z,3.10
2023-02-22T13:29:29.988Z,3.20
2023-02-22T13:32:58.924Z,3.70
2023-02-22T13:36:01.874Z,3.70
2023-02-22T13:39:21.960Z,3.10
2023-02-22T13:42:50.481Z,3.10
2023-02-22T13:46:39.150Z,3.20
2023-02-22T13:49:59.973Z,3.20
2023-02-22T13:53:10.583Z,3.40
2023-02-22T13:56:14.899Z,5.10
2023-02-22T13:59:37.491Z,3.00
2023-02-22T14:03:08.301Z,4.00
2023-02-22T14:06:39.039Z,3.70
2023-02-22T14:10:30.846Z,2.10
2023-02-22T14:14:38.084Z,2.80
2023-02-22T14:18:03.397Z,3.30
2023-02-22T14:21:11.439Z,3.10
2023-02-22T14:24:16.757Z,3.70
2023-02-22T14:27:20.191Z,3.60
2023-02-22T14:31:29.437Z,2.90
2023-02-22T14:34:58.372Z,2.90
2023-02-22T14:38:02.462Z,2.80
2023-02-22T14:41:09.145Z,3.30
2023-02-22T14:44:13.824Z,3.00
2023-02-22T14:47:22.838Z,2.80
2023-02-22T14:50:30.309Z,2.80
2023-02-22T14:53:51.776Z,2.50
2023-02-22T14:57:15.362Z,3.70
2023-02-22T15:00:31.219Z,2.90
2023-02-22T15:03:38.320Z,3.60
2023-02-22T15:06:41.299Z,3.40
2023-02-22T15:09:48.450Z,3.20
2023-02-22T15:13:09.124Z,3.30
2023-02-22T15:16:14.555Z,2.80
2023-02-22T15:20:25.990Z,2.90
2023-02-22T15:24:04.158Z,3.10
2023-02-22T15:27:15.287Z,3.40
2023-02-22T15:30:26.857Z,3.40
2023-02-22T15:33:34.346Z,3.40
2023-02-22T15:36:37.500Z,3.30
2023-02-22T15:39:44.124Z,3.00
2023-02-22T15:43:09.069Z,3.30
2023-02-22T15:46:18.966Z,3.40
2023-02-22T15:49:40.384Z,2.80
2023-02-22T15:53:07.854Z,5.40
2023-02-22T15:56:15.550Z,3.40
2023-02-22T15:59:20.802Z,4.20
2023-02-22T16:02:40.183Z,5.10
2023-02-22T16:05:50.169Z,4.60
2023-02-22T16:08:55.886Z,5.50
2023-02-22T16:12:11.369Z,8.90
2023-02-22T16:15:17.341Z,10.90
2023-02-22T16:18:33.783Z,12.30
2023-02-22T16:21:53.613Z,9.70
2023-02-22T16:25:18.555Z,13.70
2023-02-22T16:28:35.764Z,9.20
2023-02-22T16:31:40.289Z,7.00
2023-02-22T16:34:43.560Z,6.10
2023-02-22T16:37:52.649Z,7.50
2023-02-22T16:40:58.533Z,8.10
2023-02-22T16:44:01.997Z,8.70
2023-02-22T16:47:04.996Z,6.50
2023-02-22T16:50:08.454Z,7.60
2023-02-22T16:53:12.101Z,7.20
2023-02-22T16:56:18.107Z,4.20
2023-02-22T16:59:21.511Z,6.10
2023-02-22T17:02:24.667Z,5.30
2023-02-22T17:05:28.037Z,8.70
2023-02-22T17:08:32.536Z,9.30
2023-02-22T17:11:36.986Z,5.60
2023-02-22T17:14:41.188Z,8.60
2023-02-22T17:17:44.122Z,37.90
2023-02-22T17:20:47.060Z,15.80
2023-02-22T17:24:47.544Z,8.00
2023-02-22T17:28:08.064Z,9.00
2023-02-22T17:31:31.513Z,10.20
2023-02-22T17:34:41.045Z,12.00
2023-02-22T17:37:53.848Z,13.70
2023-02-22T17:44:43.681Z,17.70
2023-02-22T17:47:55.394Z,18.80
2023-02-22T17:51:19.920Z,21.60
2023-02-22T17:54:31.450Z,24.20
2023-02-22T17:57:50.614Z,16.20
2023-02-22T18:00:59.756Z,22.10
2023-02-22T18:04:35.155Z,24.20
2023-02-22T18:07:48.739Z,22.20
2023-02-22T18:10:59.051Z,23.30
2023-02-22T18:14:10.172Z,21.60
2023-02-22T18:17:13.236Z,20.70
2023-02-22T18:20:20.343Z,21.20
2023-02-22T18:23:27.170Z,21.50
2023-02-22T18:26:30.412Z,23.70
2023-02-22T18:29:34.054Z,21.40
2023-02-22T18:32:37.030Z,23.10
2023-02-22T18:35:42.994Z,16.40
2023-02-22T18:38:45.946Z,24.50
2023-02-22T18:41:48.958Z,26.10
2023-02-22T18:44:53.084Z,31.90
2023-02-22T18:47:56.178Z,24.60
2023-02-22T18:51:05.853Z,25.50
2023-02-22T18:54:08.927Z,29.00
2023-02-22T18:57:13.094Z,26.60
2023-02-22T19:00:18.889Z,26.70
2023-02-22T19:03:21.907Z,26.40
2023-02-22T19:06:24.984Z,27.60
2023-02-22T19:09:27.993Z,27.70
2023-02-22T19:12:31.707Z,26.30
2023-02-22T19:15:34.743Z,23.60
2023-02-22T19:18:38.010Z,25.80
2023-02-22T19:21:41.307Z,27.50
2023-02-22T19:24:45.369Z,25.50
2023-02-22T19:27:48.203Z,27.50
2023-02-22T19:30:51.354Z,22.00
2023-02-22T19:33:54.353Z,18.60
2023-02-22T19:37:00.801Z,15.00
2023-02-22T19:43:10.551Z,15.00
2023-02-22T19:46:13.787Z,14.70
2023-02-22T19:49:16.821Z,19.80
2023-02-22T19:52:19.848Z,20.80
2023-02-22T19:55:22.849Z,25.00
2023-02-22T19:58:25.908Z,25.10
2023-02-22T20:01:33.531Z,20.80
2023-02-22T20:04:37.421Z,22.50
2023-02-22T20:07:40.531Z,17.10
2023-02-22T20:10:43.466Z,24.10
2023-02-22T20:13:46.854Z,27.20
2023-02-22T20:17:11.905Z,27.10
2023-02-22T20:20:30.676Z,26.10
2023-02-22T20:23:34.136Z,22.40
2023-02-22T20:26:39.028Z,19.70
2023-02-22T20:29:42.359Z,18.30
2023-02-22T20:32:45.385Z,21.10
2023-02-22T20:35:48.770Z,22.10
2023-02-22T20:38:54.307Z,18.80
2023-02-22T20:42:00.701Z,19.10
2023-02-22T20:48:09.214Z,10.10
2023-02-22T20:51:14.687Z,12.40
2023-02-22T20:54:18.088Z,10.50
2023-02-22T20:57:20.912Z,9.90
2023-02-22T21:00:23.879Z,12.20
2023-02-22T21:03:26.747Z,17.30
2023-02-22T21:06:30.986Z,11.60
2023-02-22T21:09:34.011Z,11.80
2023-02-22T21:12:36.840Z,10.90
2023-02-22T21:15:43.568Z,10.50
2023-02-22T21:18:46.552Z,12.70
2023-02-22T21:21:49.466Z,10.40
2023-02-22T21:24:53.428Z,9.30
2023-02-22T21:27:56.308Z,9.50
2023-02-22T21:31:05.893Z,9.90
2023-02-22T21:34:12.295Z,10.40
2023-02-22T21:37:18.153Z,12.80
2023-02-22T21:40:21.047Z,15.70
2023-02-22T21:43:25.325Z,12.70
2023-02-22T21:46:29.549Z,13.20
2023-02-22T21:49:32.474Z,12.00
2023-02-22T21:52:35.403Z,13.00
2023-02-22T21:55:38.454Z,6.50
2023-02-22T21:58:44.841Z,13.70
2023-02-22T22:01:55.951Z,10.70
2023-02-22T22:04:59.246Z,11.40
2023-02-22T22:08:02.126Z,18.30
2023-02-22T22:11:05.899Z,15.10
2023-02-22T22:14:10.727Z,12.00
2023-02-22T22:17:13.729Z,15.60
2023-02-22T22:20:17.140Z,13.60
2023-02-22T22:23:20.027Z,11.80
2023-02-22T22:26:24.872Z,13.20
2023-02-22T22:29:28.750Z,12.70
2023-02-22T22:32:32.371Z,12.50
2023-02-22T22:35:38.685Z,12.00
2023-02-22T22:38:43.138Z,13.50
2023-02-22T22:41:46.099Z,11.10
2023-02-22T22:44:50.497Z,10.10
2023-02-22T22:47:53.495Z,9.10
2023-02-22T22:51:06.604Z,10.30
2023-02-22T22:54:10.512Z,9.80
2023-02-22T22:57:13.708Z,12.00
2023-02-22T23:00:26.943Z,12.70
2023-02-22T23:03:30.256Z,11.60
2023-02-22T23:06:36.559Z,6.20
2023-02-22T23:09:41.652Z,11.40
2023-02-22T23:12:44.930Z,11.00
2023-02-22T23:15:47.891Z,7.40
2023-02-22T23:18:51.541Z,8.00
2023-02-22T23:21:56.064Z,10.10
2023-02-22T23:25:00.035Z,8.60
2023-02-22T23:28:03.149Z,11.60
2023-02-22T23:31:08.579Z,7.00
2023-02-22T23:34:11.513Z,7.90
2023-02-22T23:37:14.482Z,12.20
2023-02-22T23:40:18.398Z,8.40
2023-02-22T23:43:25.566Z,9.30
2023-02-22T23:46:32.909Z,7.80
2023-02-22T23:49:37.171Z,6.90
2023-02-22T23:52:40.078Z,6.60
2023-02-22T23:55:44.322Z,6.50
2023-02-22T23:58:50.483Z,5.80
